sensor_id;sensor_type;location;lat;lon;timestamp;temperature;humidity
44886;DHT22;36669;51.428;21.162;2023-07-22T00:01:02;17.30;99.90
44886;DHT22;36669;51.428;21.162;2023-07-22T00:03:29;17.30;99.90
44886;DHT22;36669;51.428;21.162;2023-07-22T00:06:09;17.20;99.90
44886;DHT22;36669;51.428;21.162;2023-07-22T00:08:39;17.20;99.90
44886;DHT22;36669;51.428;21.162;2023-07-22T00:11:07;17.20;99.90
44886;DHT22;36669;51.428;21.162;2023-07-22T00:13:34;17.20;99.90
44886;DHT22;36669;51.428;21.162;2023-07-22T00:16:03;17.20;99.90
44886;DHT22;36669;51.428;21.162;2023-07-22T00:18:35;17.20;99.90
44886;DHT22;36669;51.428;21.162;2023-07-22T00:21:04;17.20;99.90
44886;DHT22;36669;51.428;21.162;2023-07-22T00:23:34;17.20;99.90
44886;DHT22;36669;51.428;21.162;2023-07-22T00:26:03;17.20;99.90
44886;DHT22;36669;51.428;21.162;2023-07-22T00:28:31;17.30;99.90
44886;DHT22;36669;51.428;21.162;2023-07-22T00:30:57;17.40;99.90
44886;DHT22;36669;51.428;21.162;2023-07-22T00:33:24;17.50;99.90
44886;DHT22;36669;51.428;21.162;2023-07-22T00:35:51;17.60;99.90
44886;DHT22;36669;51.428;21.162;2023-07-22T00:38:18;17.70;99.90
44886;DHT22;36669;51.428;21.162;2023-07-22T00:40:46;17.80;99.90
44886;DHT22;36669;51.428;21.162;2023-07-22T00:43:13;17.90;99.90
44886;DHT22;36669;51.428;21.162;2023-07-22T00:45:43;17.90;99.90
44886;DHT22;36669;51.428;21.162;2023-07-22T00:48:10;17.90;99.90
44886;DHT22;36669;51.428;21.162;2023-07-22T00:50:41;17.90;99.90
44886;DHT22;36669;51.428;21.162;2023-07-22T00:53:08;18.00;99.90
44886;DHT22;36669;51.428;21.162;2023-07-22T00:55:36;18.00;99.90
44886;DHT22;36669;51.428;21.162;2023-07-22T00:58:05;18.00;99.90
44886;DHT22;36669;51.428;21.162;2023-07-22T01:00:33;18.00;99.90
44886;DHT22;36669;51.428;21.162;2023-07-22T01:03:02;18.00;99.90
44886;DHT22;36669;51.428;21.162;2023-07-22T01:05:30;18.00;99.90
44886;DHT22;36669;51.428;21.162;2023-07-22T01:07:59;18.00;99.90
44886;DHT22;36669;51.428;21.162;2023-07-22T01:10:25;18.00;99.90
44886;DHT22;36669;51.428;21.162;2023-07-22T01:12:55;18.00;99.90
44886;DHT22;36669;51.428;21.162;2023-07-22T01:15:23;18.00;99.90
44886;DHT22;36669;51.428;21.162;2023-07-22T01:17:51;18.00;99.90
44886;DHT22;36669;51.428;21.162;2023-07-22T01:20:18;18.00;99.90
44886;DHT22;36669;51.428;21.162;2023-07-22T01:22:52;18.00;99.90
44886;DHT22;36669;51.428;21.162;2023-07-22T01:25:25;18.00;99.90
44886;DHT22;36669;51.428;21.162;2023-07-22T01:27:54;17.90;99.90
44886;DHT22;36669;51.428;21.162;2023-07-22T01:30:21;17.90;99.90
44886;DHT22;36669;51.428;21.162;2023-07-22T01:32:49;17.90;99.90
44886;DHT22;36669;51.428;21.162;2023-07-22T01:35:17;17.90;99.90
44886;DHT22;36669;51.428;21.162;2023-07-22T01:37:45;17.90;99.90
44886;DHT22;36669;51.428;21.162;2023-07-22T01:40:13;17.90;99.90
44886;DHT22;36669;51.428;21.162;2023-07-22T01:42:42;17.80;99.90
44886;DHT22;36669;51.428;21.162;2023-07-22T01:45:10;17.80;99.90
44886;DHT22;36669;51.428;21.162;2023-07-22T01:47:39;17.70;99.90
44886;DHT22;36669;51.428;21.162;2023-07-22T01:50:08;17.70;99.90
44886;DHT22;36669;51.428;21.162;2023-07-22T01:52:41;17.70;99.90
44886;DHT22;36669;51.428;21.162;2023-07-22T01:55:09;17.70;99.90
44886;DHT22;36669;51.428;21.162;2023-07-22T01:57:38;17.70;99.90
44886;DHT22;36669;51.428;21.162;2023-07-22T02:00:06;17.70;99.90
44886;DHT22;36669;51.428;21.162;2023-07-22T02:02:36;17.70;99.90
44886;DHT22;36669;51.428;21.162;2023-07-22T02:05:03;17.70;99.90
44886;DHT22;36669;51.428;21.162;2023-07-22T02:07:30;17.60;99.90
44886;DHT22;36669;51.428;21.162;2023-07-22T02:09:57;17.60;99.90
44886;DHT22;36669;51.428;21.162;2023-07-22T02:12:25;17.60;99.90
44886;DHT22;36669;51.428;21.162;2023-07-22T02:14:54;17.50;99.90
44886;DHT22;36669;51.428;21.162;2023-07-22T02:17:21;17.60;99.90
44886;DHT22;36669;51.428;21.162;2023-07-22T02:19:48;17.50;99.90
44886;DHT22;36669;51.428;21.162;2023-07-22T02:22:16;17.50;99.90
44886;DHT22;36669;51.428;21.162;2023-07-22T02:24:44;17.40;99.90
44886;DHT22;36669;51.428;21.162;2023-07-22T02:27:11;17.40;99.90
44886;DHT22;36669;51.428;21.162;2023-07-22T02:29:36;17.40;99.90
44886;DHT22;36669;51.428;21.162;2023-07-22T02:32:04;17.40;99.90
44886;DHT22;36669;51.428;21.162;2023-07-22T02:34:32;17.30;99.90
44886;DHT22;36669;51.428;21.162;2023-07-22T02:37:02;17.20;99.90
44886;DHT22;36669;51.428;21.162;2023-07-22T02:39:29;17.10;99.90
44886;DHT22;36669;51.428;21.162;2023-07-22T02:41:56;17.10;99.90
44886;DHT22;36669;51.428;21.162;2023-07-22T02:44:23;17.10;99.90
44886;DHT22;36669;51.428;21.162;2023-07-22T02:46:51;17.10;99.90
44886;DHT22;36669;51.428;21.162;2023-07-22T02:49:19;17.00;99.90
44886;DHT22;36669;51.428;21.162;2023-07-22T02:51:48;17.00;99.90
44886;DHT22;36669;51.428;21.162;2023-07-22T02:54:16;17.00;99.90
44886;DHT22;36669;51.428;21.162;2023-07-22T02:56:45;17.10;99.90
44886;DHT22;36669;51.428;21.162;2023-07-22T02:59:13;17.20;99.90
44886;DHT22;36669;51.428;21.162;2023-07-22T03:01:39;17.10;99.90
44886;DHT22;36669;51.428;21.162;2023-07-22T03:04:06;17.00;99.90
44886;DHT22;36669;51.428;21.162;2023-07-22T03:06:33;16.80;99.90
44886;DHT22;36669;51.428;21.162;2023-07-22T03:09:01;16.80;99.90
44886;DHT22;36669;51.428;21.162;2023-07-22T03:11:27;16.70;99.90
44886;DHT22;36669;51.428;21.162;2023-07-22T03:13:56;16.60;99.90
44886;DHT22;36669;51.428;21.162;2023-07-22T03:16:22;16.60;99.90
44886;DHT22;36669;51.428;21.162;2023-07-22T03:18:51;16.50;99.90
44886;DHT22;36669;51.428;21.162;2023-07-22T03:21:19;16.50;99.90
44886;DHT22;36669;51.428;21.162;2023-07-22T03:23:47;16.50;99.90
44886;DHT22;36669;51.428;21.162;2023-07-22T03:26:14;16.50;99.90
44886;DHT22;36669;51.428;21.162;2023-07-22T03:28:43;16.40;99.90
44886;DHT22;36669;51.428;21.162;2023-07-22T03:31:11;16.40;99.90
44886;DHT22;36669;51.428;21.162;2023-07-22T03:33:40;16.50;99.90
44886;DHT22;36669;51.428;21.162;2023-07-22T03:36:09;16.40;99.90
44886;DHT22;36669;51.428;21.162;2023-07-22T03:38:35;16.50;99.90
44886;DHT22;36669;51.428;21.162;2023-07-22T03:41:02;16.50;99.90
44886;DHT22;36669;51.428;21.162;2023-07-22T03:43:31;16.60;99.90
44886;DHT22;36669;51.428;21.162;2023-07-22T03:45:59;16.60;99.90
44886;DHT22;36669;51.428;21.162;2023-07-22T03:48:27;16.60;99.90
44886;DHT22;36669;51.428;21.162;2023-07-22T03:50:55;16.50;99.90
44886;DHT22;36669;51.428;21.162;2023-07-22T03:53:20;16.50;99.90
44886;DHT22;36669;51.428;21.162;2023-07-22T03:55:47;16.50;99.90
44886;DHT22;36669;51.428;21.162;2023-07-22T03:58:13;16.50;99.90
44886;DHT22;36669;51.428;21.162;2023-07-22T04:00:41;16.50;99.90
44886;DHT22;36669;51.428;21.162;2023-07-22T04:03:09;16.50;99.90
44886;DHT22;36669;51.428;21.162;2023-07-22T04:05:37;16.50;99.90
44886;DHT22;36669;51.428;21.162;2023-07-22T04:08:04;16.50;99.90
44886;DHT22;36669;51.428;21.162;2023-07-22T04:10:31;16.50;99.90
44886;DHT22;36669;51.428;21.162;2023-07-22T04:12:58;16.50;99.90
44886;DHT22;36669;51.428;21.162;2023-07-22T04:15:27;16.50;99.90
44886;DHT22;36669;51.428;21.162;2023-07-22T04:17:55;16.50;99.90
44886;DHT22;36669;51.428;21.162;2023-07-22T04:20:22;16.60;99.90
44886;DHT22;36669;51.428;21.162;2023-07-22T04:22:51;16.60;99.90
44886;DHT22;36669;51.428;21.162;2023-07-22T04:25:19;16.60;99.90
44886;DHT22;36669;51.428;21.162;2023-07-22T04:27:47;16.60;99.90
44886;DHT22;36669;51.428;21.162;2023-07-22T04:30:15;16.70;99.90
44886;DHT22;36669;51.428;21.162;2023-07-22T04:32:51;16.70;99.90
44886;DHT22;36669;51.428;21.162;2023-07-22T04:35:19;16.80;99.90
44886;DHT22;36669;51.428;21.162;2023-07-22T04:37:47;16.90;99.90
44886;DHT22;36669;51.428;21.162;2023-07-22T04:40:14;17.00;99.90
44886;DHT22;36669;51.428;21.162;2023-07-22T04:42:44;17.00;99.90
44886;DHT22;36669;51.428;21.162;2023-07-22T04:45:15;17.10;99.90
44886;DHT22;36669;51.428;21.162;2023-07-22T04:47:42;17.20;99.90
44886;DHT22;36669;51.428;21.162;2023-07-22T04:50:14;17.30;99.90
44886;DHT22;36669;51.428;21.162;2023-07-22T04:52:44;17.40;99.90
44886;DHT22;36669;51.428;21.162;2023-07-22T04:55:13;17.40;99.90
44886;DHT22;36669;51.428;21.162;2023-07-22T04:57:40;17.50;99.90
44886;DHT22;36669;51.428;21.162;2023-07-22T05:00:16;17.60;99.90
44886;DHT22;36669;51.428;21.162;2023-07-22T05:02:55;17.60;99.90
44886;DHT22;36669;51.428;21.162;2023-07-22T05:05:24;17.70;99.90
44886;DHT22;36669;51.428;21.162;2023-07-22T05:07:51;17.60;99.90
44886;DHT22;36669;51.428;21.162;2023-07-22T05:10:20;17.70;99.90
44886;DHT22;36669;51.428;21.162;2023-07-22T05:12:48;17.70;99.90
44886;DHT22;36669;51.428;21.162;2023-07-22T05:15:16;17.80;99.90
44886;DHT22;36669;51.428;21.162;2023-07-22T05:17:44;17.80;99.90
44886;DHT22;36669;51.428;21.162;2023-07-22T05:20:12;17.90;99.90
44886;DHT22;36669;51.428;21.162;2023-07-22T05:22:41;18.00;99.90
44886;DHT22;36669;51.428;21.162;2023-07-22T05:25:10;18.00;99.90
44886;DHT22;36669;51.428;21.162;2023-07-22T05:27:40;18.00;99.90
44886;DHT22;36669;51.428;21.162;2023-07-22T05:30:08;18.00;99.90
44886;DHT22;36669;51.428;21.162;2023-07-22T05:32:35;18.10;99.90
44886;DHT22;36669;51.428;21.162;2023-07-22T05:35:01;18.20;99.90
44886;DHT22;36669;51.428;21.162;2023-07-22T05:37:29;18.30;99.90
44886;DHT22;36669;51.428;21.162;2023-07-22T05:39:56;18.40;99.90
44886;DHT22;36669;51.428;21.162;2023-07-22T05:42:23;18.60;99.90
44886;DHT22;36669;51.428;21.162;2023-07-22T05:44:50;18.80;99.90
44886;DHT22;36669;51.428;21.162;2023-07-22T05:47:18;18.80;99.90
44886;DHT22;36669;51.428;21.162;2023-07-22T05:49:45;18.90;99.90
44886;DHT22;36669;51.428;21.162;2023-07-22T05:52:12;19.00;99.90
44886;DHT22;36669;51.428;21.162;2023-07-22T05:54:37;19.00;99.90
44886;DHT22;36669;51.428;21.162;2023-07-22T05:57:05;19.10;99.90
44886;DHT22;36669;51.428;21.162;2023-07-22T05:59:32;18.90;99.90
44886;DHT22;36669;51.428;21.162;2023-07-22T06:01:59;18.90;99.90
44886;DHT22;36669;51.428;21.162;2023-07-22T06:04:26;18.80;99.90
44886;DHT22;36669;51.428;21.162;2023-07-22T06:06:54;18.70;99.90
44886;DHT22;36669;51.428;21.162;2023-07-22T06:09:22;18.60;99.90
44886;DHT22;36669;51.428;21.162;2023-07-22T06:11:50;18.70;99.90
44886;DHT22;36669;51.428;21.162;2023-07-22T06:14:18;18.80;99.90
44886;DHT22;36669;51.428;21.162;2023-07-22T06:16:45;18.80;99.90
44886;DHT22;36669;51.428;21.162;2023-07-22T06:19:12;18.80;99.90
44886;DHT22;36669;51.428;21.162;2023-07-22T06:21:40;18.80;99.90
44886;DHT22;36669;51.428;21.162;2023-07-22T06:24:08;18.90;99.90
44886;DHT22;36669;51.428;21.162;2023-07-22T06:26:36;18.80;99.90
44886;DHT22;36669;51.428;21.162;2023-07-22T06:29:04;19.00;99.90
44886;DHT22;36669;51.428;21.162;2023-07-22T06:31:30;19.00;99.90
44886;DHT22;36669;51.428;21.162;2023-07-22T06:33:58;19.00;99.90
44886;DHT22;36669;51.428;21.162;2023-07-22T06:36:26;18.80;99.90
44886;DHT22;36669;51.428;21.162;2023-07-22T06:38:52;18.70;99.90
44886;DHT22;36669;51.428;21.162;2023-07-22T06:41:21;18.80;99.90
44886;DHT22;36669;51.428;21.162;2023-07-22T06:43:50;18.80;99.90
44886;DHT22;36669;51.428;21.162;2023-07-22T06:46:17;18.80;99.90
44886;DHT22;36669;51.428;21.162;2023-07-22T06:48:46;18.80;99.90
44886;DHT22;36669;51.428;21.162;2023-07-22T06:51:15;18.80;99.90
44886;DHT22;36669;51.428;21.162;2023-07-22T06:53:40;18.80;99.90
44886;DHT22;36669;51.428;21.162;2023-07-22T06:56:07;18.90;99.90
44886;DHT22;36669;51.428;21.162;2023-07-22T06:58:36;19.00;99.90
44886;DHT22;36669;51.428;21.162;2023-07-22T07:01:03;19.10;99.90
44886;DHT22;36669;51.428;21.162;2023-07-22T07:03:28;19.20;99.90
44886;DHT22;36669;51.428;21.162;2023-07-22T07:05:57;19.30;99.90
44886;DHT22;36669;51.428;21.162;2023-07-22T07:08:27;19.30;99.90
44886;DHT22;36669;51.428;21.162;2023-07-22T07:10:55;19.20;99.90
44886;DHT22;36669;51.428;21.162;2023-07-22T07:13:23;19.30;99.90
44886;DHT22;36669;51.428;21.162;2023-07-22T07:15:51;19.40;99.90
44886;DHT22;36669;51.428;21.162;2023-07-22T07:18:18;19.60;99.90
44886;DHT22;36669;51.428;21.162;2023-07-22T07:20:46;19.70;99.90
44886;DHT22;36669;51.428;21.162;2023-07-22T07:23:14;19.70;99.90
44886;DHT22;36669;51.428;21.162;2023-07-22T07:25:43;19.60;99.90
44886;DHT22;36669;51.428;21.162;2023-07-22T07:28:10;19.70;99.90
44886;DHT22;36669;51.428;21.162;2023-07-22T07:30:37;19.60;99.90
44886;DHT22;36669;51.428;21.162;2023-07-22T07:33:05;19.60;99.90
44886;DHT22;36669;51.428;21.162;2023-07-22T07:35:32;19.50;99.90
44886;DHT22;36669;51.428;21.162;2023-07-22T07:37:58;19.50;99.90
44886;DHT22;36669;51.428;21.162;2023-07-22T07:40:26;19.40;99.90
44886;DHT22;36669;51.428;21.162;2023-07-22T07:42:54;19.40;99.90
44886;DHT22;36669;51.428;21.162;2023-07-22T07:45:23;19.40;99.90
44886;DHT22;36669;51.428;21.162;2023-07-22T07:47:51;19.30;99.90
44886;DHT22;36669;51.428;21.162;2023-07-22T07:50:18;19.20;99.90
44886;DHT22;36669;51.428;21.162;2023-07-22T07:52:46;19.20;99.90
44886;DHT22;36669;51.428;21.162;2023-07-22T07:55:14;19.30;99.90
44886;DHT22;36669;51.428;21.162;2023-07-22T07:57:40;19.40;99.90
44886;DHT22;36669;51.428;21.162;2023-07-22T08:00:07;19.60;99.90
44886;DHT22;36669;51.428;21.162;2023-07-22T08:02:35;19.80;99.90
44886;DHT22;36669;51.428;21.162;2023-07-22T08:05:03;20.00;99.90
44886;DHT22;36669;51.428;21.162;2023-07-22T08:07:31;20.00;99.90
44886;DHT22;36669;51.428;21.162;2023-07-22T08:09:58;20.10;99.90
44886;DHT22;36669;51.428;21.162;2023-07-22T08:12:27;20.10;99.90
44886;DHT22;36669;51.428;21.162;2023-07-22T08:14:55;20.30;99.90
44886;DHT22;36669;51.428;21.162;2023-07-22T08:17:23;20.40;99.90
44886;DHT22;36669;51.428;21.162;2023-07-22T08:19:51;20.50;99.90
44886;DHT22;36669;51.428;21.162;2023-07-22T08:22:20;20.60;99.90
44886;DHT22;36669;51.428;21.162;2023-07-22T08:24:48;20.80;99.90
44886;DHT22;36669;51.428;21.162;2023-07-22T08:27:15;20.80;99.90
44886;DHT22;36669;51.428;21.162;2023-07-22T08:29:42;20.80;99.90
44886;DHT22;36669;51.428;21.162;2023-07-22T08:32:09;20.90;99.90
44886;DHT22;36669;51.428;21.162;2023-07-22T08:34:36;20.80;99.90
44886;DHT22;36669;51.428;21.162;2023-07-22T08:37:03;20.90;99.90
44886;DHT22;36669;51.428;21.162;2023-07-22T08:39:31;20.70;99.90
44886;DHT22;36669;51.428;21.162;2023-07-22T08:42:01;20.50;99.90
44886;DHT22;36669;51.428;21.162;2023-07-22T08:44:32;20.50;99.90
44886;DHT22;36669;51.428;21.162;2023-07-22T08:47:03;20.60;99.90
44886;DHT22;36669;51.428;21.162;2023-07-22T08:49:33;20.70;99.90
44886;DHT22;36669;51.428;21.162;2023-07-22T08:52:02;20.80;99.90
44886;DHT22;36669;51.428;21.162;2023-07-22T08:54:28;21.10;99.90
44886;DHT22;36669;51.428;21.162;2023-07-22T08:56:56;21.20;99.90
44886;DHT22;36669;51.428;21.162;2023-07-22T08:59:22;21.10;99.90
44886;DHT22;36669;51.428;21.162;2023-07-22T09:01:52;20.90;99.90
44886;DHT22;36669;51.428;21.162;2023-07-22T09:04:21;21.20;99.90
44886;DHT22;36669;51.428;21.162;2023-07-22T09:06:48;21.20;99.90
44886;DHT22;36669;51.428;21.162;2023-07-22T09:09:15;21.20;99.90
44886;DHT22;36669;51.428;21.162;2023-07-22T09:11:44;21.10;99.90
44886;DHT22;36669;51.428;21.162;2023-07-22T09:14:12;21.10;99.90
44886;DHT22;36669;51.428;21.162;2023-07-22T09:16:42;21.00;99.90
44886;DHT22;36669;51.428;21.162;2023-07-22T09:19:09;21.00;99.90
44886;DHT22;36669;51.428;21.162;2023-07-22T09:21:37;21.00;99.90
44886;DHT22;36669;51.428;21.162;2023-07-22T09:24:25;21.10;99.90
44886;DHT22;36669;51.428;21.162;2023-07-22T09:26:54;21.10;99.90
44886;DHT22;36669;51.428;21.162;2023-07-22T09:29:40;21.20;99.90
44886;DHT22;36669;51.428;21.162;2023-07-22T09:32:07;21.20;99.90
44886;DHT22;36669;51.428;21.162;2023-07-22T09:34:34;21.20;99.90
44886;DHT22;36669;51.428;21.162;2023-07-22T09:37:02;21.20;99.90
44886;DHT22;36669;51.428;21.162;2023-07-22T09:39:31;21.30;99.90
44886;DHT22;36669;51.428;21.162;2023-07-22T09:41:59;21.10;99.90
44886;DHT22;36669;51.428;21.162;2023-07-22T09:44:31;21.20;99.90
44886;DHT22;36669;51.428;21.162;2023-07-22T09:47:06;21.40;99.90
44886;DHT22;36669;51.428;21.162;2023-07-22T09:49:41;21.60;99.90
44886;DHT22;36669;51.428;21.162;2023-07-22T09:52:12;21.70;99.90
44886;DHT22;36669;51.428;21.162;2023-07-22T09:54:46;21.60;99.90
44886;DHT22;36669;51.428;21.162;2023-07-22T09:57:15;21.50;99.90
44886;DHT22;36669;51.428;21.162;2023-07-22T09:59:43;21.70;99.90
44886;DHT22;36669;51.428;21.162;2023-07-22T10:02:11;21.60;99.90
44886;DHT22;36669;51.428;21.162;2023-07-22T10:04:40;21.90;99.90
44886;DHT22;36669;51.428;21.162;2023-07-22T10:07:09;22.10;99.90
44886;DHT22;36669;51.428;21.162;2023-07-22T10:09:38;22.00;99.90
44886;DHT22;36669;51.428;21.162;2023-07-22T10:12:06;21.90;99.90
44886;DHT22;36669;51.428;21.162;2023-07-22T10:14:32;21.90;99.90
44886;DHT22;36669;51.428;21.162;2023-07-22T10:17:00;21.80;99.90
44886;DHT22;36669;51.428;21.162;2023-07-22T10:19:27;21.70;99.90
44886;DHT22;36669;51.428;21.162;2023-07-22T10:21:56;21.60;99.90
44886;DHT22;36669;51.428;21.162;2023-07-22T10:24:23;21.80;99.90
44886;DHT22;36669;51.428;21.162;2023-07-22T10:26:51;21.90;99.90
44886;DHT22;36669;51.428;21.162;2023-07-22T10:29:20;22.30;99.90
44886;DHT22;36669;51.428;21.162;2023-07-22T10:31:47;22.30;99.90
44886;DHT22;36669;51.428;21.162;2023-07-22T10:34:23;22.40;99.90
44886;DHT22;36669;51.428;21.162;2023-07-22T10:36:50;22.50;99.90
44886;DHT22;36669;51.428;21.162;2023-07-22T10:39:28;22.30;99.90
44886;DHT22;36669;51.428;21.162;2023-07-22T10:42:05;22.50;99.90
44886;DHT22;36669;51.428;21.162;2023-07-22T10:44:40;22.60;99.90
44886;DHT22;36669;51.428;21.162;2023-07-22T10:47:08;22.70;99.90
44886;DHT22;36669;51.428;21.162;2023-07-22T10:49:53;22.80;99.90
44886;DHT22;36669;51.428;21.162;2023-07-22T10:52:43;22.60;99.90
44886;DHT22;36669;51.428;21.162;2023-07-22T10:55:17;22.20;99.90
44886;DHT22;36669;51.428;21.162;2023-07-22T10:57:54;22.20;99.90
44886;DHT22;36669;51.428;21.162;2023-07-22T11:00:30;22.50;99.90
44886;DHT22;36669;51.428;21.162;2023-07-22T11:03:11;22.60;99.90
44886;DHT22;36669;51.428;21.162;2023-07-22T11:05:53;22.70;99.90
44886;DHT22;36669;51.428;21.162;2023-07-22T11:08:48;22.30;99.90
44886;DHT22;36669;51.428;21.162;2023-07-22T11:11:19;22.50;99.90
44886;DHT22;36669;51.428;21.162;2023-07-22T11:13:46;22.20;99.90
44886;DHT22;36669;51.428;21.162;2023-07-22T11:16:14;22.40;99.90
44886;DHT22;36669;51.428;21.162;2023-07-22T11:18:41;22.40;99.90
44886;DHT22;36669;51.428;21.162;2023-07-22T11:21:12;22.20;99.90
44886;DHT22;36669;51.428;21.162;2023-07-22T11:23:38;22.10;99.90
44886;DHT22;36669;51.428;21.162;2023-07-22T11:26:05;22.10;99.90
44886;DHT22;36669;51.428;21.162;2023-07-22T11:28:34;22.10;99.90
44886;DHT22;36669;51.428;21.162;2023-07-22T11:31:01;22.30;99.90
44886;DHT22;36669;51.428;21.162;2023-07-22T11:33:39;22.60;99.90
44886;DHT22;36669;51.428;21.162;2023-07-22T11:36:07;22.70;99.90
44886;DHT22;36669;51.428;21.162;2023-07-22T11:38:35;22.80;99.90
44886;DHT22;36669;51.428;21.162;2023-07-22T11:41:03;22.90;99.90
44886;DHT22;36669;51.428;21.162;2023-07-22T11:43:31;23.20;99.90
44886;DHT22;36669;51.428;21.162;2023-07-22T11:45:57;23.20;99.90
44886;DHT22;36669;51.428;21.162;2023-07-22T11:48:24;23.20;99.90
44886;DHT22;36669;51.428;21.162;2023-07-22T11:50:52;22.80;99.90
44886;DHT22;36669;51.428;21.162;2023-07-22T11:53:28;22.50;99.90
44886;DHT22;36669;51.428;21.162;2023-07-22T11:56:00;22.50;99.90
44886;DHT22;36669;51.428;21.162;2023-07-22T11:58:28;22.60;99.90
44886;DHT22;36669;51.428;21.162;2023-07-22T12:01:10;22.70;99.90
44886;DHT22;36669;51.428;21.162;2023-07-22T12:03:36;23.00;99.90
44886;DHT22;36669;51.428;21.162;2023-07-22T12:06:07;23.30;99.90
44886;DHT22;36669;51.428;21.162;2023-07-22T12:08:34;23.70;99.90
44886;DHT22;36669;51.428;21.162;2023-07-22T12:11:02;23.90;99.90
44886;DHT22;36669;51.428;21.162;2023-07-22T12:13:36;23.60;99.90
44886;DHT22;36669;51.428;21.162;2023-07-22T12:16:05;23.20;99.90
44886;DHT22;36669;51.428;21.162;2023-07-22T12:18:47;23.20;99.90
44886;DHT22;36669;51.428;21.162;2023-07-22T12:21:14;22.90;99.90
44886;DHT22;36669;51.428;21.162;2023-07-22T12:23:42;22.80;99.90
44886;DHT22;36669;51.428;21.162;2023-07-22T12:26:09;22.70;99.90
44886;DHT22;36669;51.428;21.162;2023-07-22T12:28:38;22.80;99.90
44886;DHT22;36669;51.428;21.162;2023-07-22T12:31:05;22.90;99.90
44886;DHT22;36669;51.428;21.162;2023-07-22T12:33:33;22.90;99.90
44886;DHT22;36669;51.428;21.162;2023-07-22T12:36:02;22.60;99.90
44886;DHT22;36669;51.428;21.162;2023-07-22T12:38:30;22.60;99.90
44886;DHT22;36669;51.428;21.162;2023-07-22T12:40:57;22.50;99.90
44886;DHT22;36669;51.428;21.162;2023-07-22T12:43:25;22.60;99.90
44886;DHT22;36669;51.428;21.162;2023-07-22T12:45:52;22.50;99.90
44886;DHT22;36669;51.428;21.162;2023-07-22T12:48:19;22.70;99.90
44886;DHT22;36669;51.428;21.162;2023-07-22T12:50:47;22.80;99.90
44886;DHT22;36669;51.428;21.162;2023-07-22T12:53:15;23.10;99.90
44886;DHT22;36669;51.428;21.162;2023-07-22T12:55:42;23.40;99.90
44886;DHT22;36669;51.428;21.162;2023-07-22T12:58:09;23.70;99.90
44886;DHT22;36669;51.428;21.162;2023-07-22T13:00:36;24.00;99.90
44886;DHT22;36669;51.428;21.162;2023-07-22T13:03:04;24.10;99.90
44886;DHT22;36669;51.428;21.162;2023-07-22T13:05:30;24.30;99.90
44886;DHT22;36669;51.428;21.162;2023-07-22T13:07:57;23.70;99.90
44886;DHT22;36669;51.428;21.162;2023-07-22T13:10:31;23.70;99.90
44886;DHT22;36669;51.428;21.162;2023-07-22T13:13:06;23.40;99.90
44886;DHT22;36669;51.428;21.162;2023-07-22T13:15:33;23.20;99.90
44886;DHT22;36669;51.428;21.162;2023-07-22T13:18:00;23.20;99.90
44886;DHT22;36669;51.428;21.162;2023-07-22T13:20:27;23.10;99.90
44886;DHT22;36669;51.428;21.162;2023-07-22T13:22:54;22.90;99.90
44886;DHT22;36669;51.428;21.162;2023-07-22T13:25:21;22.80;99.90
44886;DHT22;36669;51.428;21.162;2023-07-22T13:27:49;22.70;99.90
44886;DHT22;36669;51.428;21.162;2023-07-22T13:30:17;22.80;99.90
44886;DHT22;36669;51.428;21.162;2023-07-22T13:32:45;22.80;99.90
44886;DHT22;36669;51.428;21.162;2023-07-22T13:35:11;23.00;99.90
44886;DHT22;36669;51.428;21.162;2023-07-22T13:37:39;23.20;99.90
44886;DHT22;36669;51.428;21.162;2023-07-22T13:40:07;23.40;99.90
44886;DHT22;36669;51.428;21.162;2023-07-22T13:42:37;23.50;99.90
44886;DHT22;36669;51.428;21.162;2023-07-22T13:45:05;23.40;99.90
44886;DHT22;36669;51.428;21.162;2023-07-22T13:47:33;23.20;99.90
44886;DHT22;36669;51.428;21.162;2023-07-22T13:49:59;23.00;99.90
44886;DHT22;36669;51.428;21.162;2023-07-22T13:52:26;22.80;99.90
44886;DHT22;36669;51.428;21.162;2023-07-22T13:54:53;22.80;99.90
44886;DHT22;36669;51.428;21.162;2023-07-22T13:57:20;22.60;99.90
44886;DHT22;36669;51.428;21.162;2023-07-22T13:59:48;22.30;99.90
44886;DHT22;36669;51.428;21.162;2023-07-22T14:02:16;22.20;99.90
44886;DHT22;36669;51.428;21.162;2023-07-22T14:04:44;22.10;99.90
44886;DHT22;36669;51.428;21.162;2023-07-22T14:07:12;22.10;99.90
44886;DHT22;36669;51.428;21.162;2023-07-22T14:09:40;21.90;99.90
44886;DHT22;36669;51.428;21.162;2023-07-22T14:12:08;22.00;99.90
44886;DHT22;36669;51.428;21.162;2023-07-22T14:14:36;22.00;99.90
44886;DHT22;36669;51.428;21.162;2023-07-22T14:17:03;22.10;99.90
44886;DHT22;36669;51.428;21.162;2023-07-22T14:19:32;22.10;99.90
44886;DHT22;36669;51.428;21.162;2023-07-22T14:22:00;22.10;99.90
44886;DHT22;36669;51.428;21.162;2023-07-22T14:24:27;22.10;99.90
44886;DHT22;36669;51.428;21.162;2023-07-22T14:26:54;22.40;99.90
44886;DHT22;36669;51.428;21.162;2023-07-22T14:29:21;23.70;99.90
44886;DHT22;36669;51.428;21.162;2023-07-22T14:31:49;23.50;99.90
44886;DHT22;36669;51.428;21.162;2023-07-22T14:34:17;25.20;99.90
44886;DHT22;36669;51.428;21.162;2023-07-22T14:36:44;25.50;99.90
44886;DHT22;36669;51.428;21.162;2023-07-22T14:39:11;25.20;99.90
44886;DHT22;36669;51.428;21.162;2023-07-22T14:41:40;25.20;99.90
44886;DHT22;36669;51.428;21.162;2023-07-22T14:44:08;25.10;99.90
44886;DHT22;36669;51.428;21.162;2023-07-22T14:46:37;24.90;99.90
44886;DHT22;36669;51.428;21.162;2023-07-22T14:49:05;24.60;99.90
44886;DHT22;36669;51.428;21.162;2023-07-22T14:51:37;25.40;99.90
44886;DHT22;36669;51.428;21.162;2023-07-22T14:54:05;25.90;99.90
44886;DHT22;36669;51.428;21.162;2023-07-22T14:56:32;25.90;99.90
44886;DHT22;36669;51.428;21.162;2023-07-22T14:59:00;25.80;99.90
44886;DHT22;36669;51.428;21.162;2023-07-22T15:01:35;26.00;99.90
44886;DHT22;36669;51.428;21.162;2023-07-22T15:04:04;25.30;99.90
44886;DHT22;36669;51.428;21.162;2023-07-22T15:06:32;24.80;99.90
44886;DHT22;36669;51.428;21.162;2023-07-22T15:09:01;24.00;99.90
44886;DHT22;36669;51.428;21.162;2023-07-22T15:11:28;24.50;99.90
44886;DHT22;36669;51.428;21.162;2023-07-22T15:13:55;25.50;99.90
44886;DHT22;36669;51.428;21.162;2023-07-22T15:16:23;26.10;99.90
44886;DHT22;36669;51.428;21.162;2023-07-22T15:18:50;25.60;99.90
44886;DHT22;36669;51.428;21.162;2023-07-22T15:21:18;25.90;99.90
44886;DHT22;36669;51.428;21.162;2023-07-22T15:23:45;25.40;99.90